Главная страница
METAR-TAF:

METAR-TAF

Аэропорты :

Лаппеэнранта, Финляндия

широта: 61-02-45N, долгота: 028-08-55E, высота над уровнем моря: 106 м

Текущие метеонаблюдения

Эта сводка был подготовлена 34 минут назад, в 02:20 UTC
Ветер 4 Узел от юго-западный
Температура 10°C
Влажность 66%
Давление 1005 hPa
Видимость 10 км и более
Нет облачности ниже 1500 м, и нет кучево-дождевой облачности

METAR: EFLP 210220Z AUTO 23004KT CAVOK 10/04 Q1005

Время: 05:54 (02:54 UTC)

Прогноз

Эта сводка был подготовлена 23 минут назад, в 02:31 UTC
Прогноз действительный с 21-го 03 UTC до 21-го 12 UTC
Ветер 4 Узел от юго-западный
Видимость 10 км и более
Нет облачности ниже 1500 м, и нет кучево-дождевой облачности

TAF: EFLP 210231Z 2103/2112 22004KT CAVOK

Метеонаблюдения и прогнозы для более 4000 аэропортов (сводки METAR и TAF).

Имеющиеся станции представлены на карте желтыми и красными точками.

Чтобы увидеть название станции, наведите на нее мышь.

Затем щелкните, чтобы увидеть метеонаблюдения и метеопрогнозы.

Управление картой: чтобы увеличить масштаб, щелкните зеленые кнопки с черным крестиком; чтобы уменьшить масштаб, щелкните зеленую кнопку с тире; для просмотра соседних карт щелкайте зеленые стрелки.


METAR-TAF: